Strawberry Ridge, Pennsylvania
Current Conditions -  °F | °C
As of 1:53 PM on Saturday 20 Dec 2014 (Local Time) from KSEG Reporting Station
Overcast Overcast  
Wind Chill: 34°   Ceiling: 2900
Heat Index: 34°   Visibility: 10mi
Dew Point: 21°   Wind: 0mph
Humidity: 59%   Direction: NA
Pressure: 30.25"   Gusts: NA
Location:  41.0117°N, 76.6578°W
Report Text: KSEG 201853Z AUTO 00000KT 10SM OVC029 01/M06 A3025 RMK AO2 SLP248 T00111061
Loading
Personal Weather Stations






























Interactive Weather Map New forecast layout! Learn more

10-Day Weather Forecast

Advertisements
Track Severe Weather on mobile